Terminal Aerodrome Forecast
Issued by NWS Billings, MT

Home | Current Version | Previous Version | Text Only | Print | Product List | Glossary On
Versions: 1 2 3 4 5 6 7 8 9 10 11 12 13
000
FTUS45 KBYZ 050527
TAFBIL
TAF
KBIL 050527Z 0506/0606 16006KT P6SM SCT150
     FM051200 23007KT P6SM BKN150
     FM051800 23007KT P6SM SCT120=

USA.gov is the U.S. government's official web portal to all federal, state and local government web resources and services.